createdAt,value
2022-08-10T00:00:57.418Z,20.20
2022-08-10T00:03:25.405Z,20.10
2022-08-10T00:05:54.933Z,20.10
2022-08-10T00:08:24.995Z,20.00
2022-08-10T00:10:55.933Z,19.90
2022-08-10T00:13:25.288Z,19.90
2022-08-10T00:15:55.290Z,19.90
2022-08-10T00:18:31.831Z,19.90
2022-08-10T00:21:05.062Z,19.90
2022-08-10T00:23:33.181Z,19.80
2022-08-10T00:26:03.404Z,19.80
2022-08-10T00:28:31.759Z,19.90
2022-08-10T00:30:59.737Z,19.90
2022-08-10T00:33:27.734Z,19.80
2022-08-10T00:35:55.758Z,19.70
2022-08-10T00:38:23.949Z,19.60
2022-08-10T00:40:51.962Z,19.60
2022-08-10T00:43:23.283Z,19.60
2022-08-10T00:45:59.178Z,19.60
2022-08-10T00:48:29.119Z,19.60
2022-08-10T00:50:58.153Z,19.60
2022-08-10T00:53:26.347Z,19.60
2022-08-10T00:57:14.948Z,19.70
2022-08-10T00:58:44.612Z,19.60
2022-08-10T01:02:09.501Z,19.60
2022-08-10T01:04:57.924Z,19.60
2022-08-10T01:07:04.280Z,19.60
2022-08-10T01:09:38.734Z,19.60
2022-08-10T01:12:38.258Z,19.60
2022-08-10T01:15:08.520Z,19.50
2022-08-10T01:17:50.605Z,19.40
2022-08-10T01:20:30.375Z,19.40
2022-08-10T01:23:46.367Z,19.40
2022-08-10T01:26:37.186Z,19.30
2022-08-10T01:29:50.638Z,19.20
2022-08-10T01:32:27.528Z,19.10
2022-08-10T01:35:09.149Z,19.10
2022-08-10T01:37:43.097Z,19.00
2022-08-10T01:40:25.755Z,18.90
2022-08-10T01:42:59.599Z,18.80
2022-08-10T01:45:45.492Z,18.80
2022-08-10T01:48:28.913Z,18.80
2022-08-10T01:51:12.963Z,18.70
2022-08-10T01:53:47.103Z,18.50
2022-08-10T01:56:17.698Z,18.50
2022-08-10T01:58:48.630Z,18.40
2022-08-10T02:01:23.097Z,18.40
2022-08-10T02:04:04.983Z,18.40
2022-08-10T02:06:37.959Z,18.40
2022-08-10T02:09:08.166Z,18.20
2022-08-10T02:11:57.538Z,18.20
2022-08-10T02:14:33.337Z,18.10
2022-08-10T02:17:04.833Z,18.00
2022-08-10T02:19:36.474Z,17.80
2022-08-10T02:22:37.954Z,17.60
2022-08-10T02:24:55.368Z,17.50
2022-08-10T02:27:25.724Z,17.50
2022-08-10T02:29:54.710Z,17.40
2022-08-10T02:32:52.779Z,17.40
2022-08-10T02:35:22.453Z,17.30
2022-08-10T02:37:53.904Z,17.30
2022-08-10T02:45:14.850Z,17.30
2022-08-10T02:45:23.749Z,17.10
2022-08-10T02:46:20.765Z,17.10
2022-08-10T02:49:04.312Z,17.10
2022-08-10T02:52:07.780Z,17.00
2022-08-10T02:54:33.516Z,16.90
2022-08-10T02:57:09.431Z,16.90
2022-08-10T02:59:44.087Z,16.90
2022-08-10T03:02:15.577Z,17.00
2022-08-10T03:04:55.976Z,17.00
2022-08-10T03:07:43.376Z,17.10
2022-08-10T03:10:16.184Z,17.10
2022-08-10T03:12:45.162Z,17.10
2022-08-10T03:15:16.101Z,17.20
2022-08-10T03:17:57.516Z,17.30
2022-08-10T03:20:37.219Z,17.30
2022-08-10T03:23:11.555Z,17.40
2022-08-10T03:25:40.186Z,17.40
2022-08-10T03:28:09.382Z,17.40
2022-08-10T03:30:38.170Z,17.30
2022-08-10T03:33:08.616Z,17.30
2022-08-10T03:35:38.464Z,17.40
2022-08-10T03:38:06.437Z,17.50
2022-08-10T03:40:46.380Z,17.50
2022-08-10T03:43:18.739Z,17.50
2022-08-10T03:45:55.830Z,17.40
2022-08-10T03:48:44.820Z,17.20
2022-08-10T03:51:16.927Z,17.30
2022-08-10T03:54:05.814Z,17.20
2022-08-10T03:56:34.696Z,17.30
2022-08-10T03:59:03.255Z,17.10
2022-08-10T04:02:46.225Z,17.10
2022-08-10T04:04:24.204Z,16.90
2022-08-10T04:06:56.112Z,16.90
2022-08-10T04:09:43.317Z,17.10
2022-08-10T04:12:14.798Z,17.00
2022-08-10T04:14:49.318Z,17.00
2022-08-10T04:17:18.428Z,16.90
2022-08-10T04:20:08.967Z,16.80
2022-08-10T04:22:40.884Z,16.80
2022-08-10T04:25:11.491Z,16.90
2022-08-10T04:27:39.692Z,16.90
2022-08-10T04:30:09.146Z,16.90
2022-08-10T04:32:38.913Z,17.00
2022-08-10T04:35:11.450Z,17.00
2022-08-10T04:37:47.349Z,17.00
2022-08-10T04:40:28.496Z,17.10
2022-08-10T04:43:03.293Z,17.10
2022-08-10T04:45:47.564Z,17.20
2022-08-10T04:48:41.075Z,17.30
2022-08-10T04:51:11.073Z,17.50
2022-08-10T04:54:04.023Z,17.60
2022-08-10T04:56:35.843Z,17.90
2022-08-10T04:59:05.282Z,18.50
2022-08-10T05:02:21.527Z,19.30
2022-08-10T05:04:36.094Z,20.00
2022-08-10T05:07:08.016Z,20.70
2022-08-10T05:10:00.498Z,21.30
2022-08-10T05:12:25.768Z,21.60
2022-08-10T05:14:54.725Z,21.90
2022-08-10T05:17:23.417Z,22.40
2022-08-10T05:20:02.034Z,23.10
2022-08-10T05:22:33.534Z,23.30
2022-08-10T05:25:02.951Z,23.30
2022-08-10T05:27:31.024Z,23.70
2022-08-10T05:30:01.627Z,24.00
2022-08-10T05:32:31.415Z,24.20
2022-08-10T05:34:59.647Z,24.60
2022-08-10T05:38:11.693Z,24.50
2022-08-10T05:40:19.697Z,24.70
2022-08-10T05:42:47.888Z,24.80
2022-08-10T05:45:21.385Z,25.00
2022-08-10T05:48:54.365Z,25.10
2022-08-10T05:50:37.966Z,25.20
2022-08-10T05:53:59.119Z,25.20
2022-08-10T05:55:55.698Z,25.20
2022-08-10T05:58:23.880Z,25.30
2022-08-10T06:00:56.962Z,25.20
2022-08-10T06:03:29.060Z,25.60
2022-08-10T06:05:59.356Z,25.80
2022-08-10T06:08:31.943Z,25.90
2022-08-10T06:12:24.611Z,26.00
2022-08-10T06:14:16.633Z,26.00
2022-08-10T06:16:47.078Z,26.10
2022-08-10T06:19:15.620Z,26.10
2022-08-10T06:22:00.986Z,26.40
2022-08-10T06:24:31.765Z,26.80
2022-08-10T06:27:01.257Z,26.70
2022-08-10T06:29:33.135Z,26.50
2022-08-10T06:32:03.507Z,26.50
2022-08-10T06:34:34.247Z,26.50
2022-08-10T06:37:05.530Z,26.70
2022-08-10T06:39:35.593Z,26.60
2022-08-10T06:42:15.756Z,27.30
2022-08-10T06:44:58.051Z,27.60
2022-08-10T06:47:32.284Z,27.80
2022-08-10T06:50:09.610Z,28.10
2022-08-10T06:52:39.144Z,28.10
2022-08-10T06:55:11.255Z,27.60
2022-08-10T06:57:42.002Z,27.40
2022-08-10T07:00:19.725Z,27.40
2022-08-10T07:02:52.875Z,27.20
2022-08-10T07:05:23.431Z,26.50
2022-08-10T07:07:53.389Z,27.00
2022-08-10T07:10:25.153Z,27.60
2022-08-10T07:13:12.393Z,27.00
2022-08-10T07:15:58.101Z,27.40
2022-08-10T07:18:31.115Z,27.90
2022-08-10T07:21:02.121Z,27.10
2022-08-10T07:23:57.491Z,27.40
2022-08-10T07:26:22.087Z,27.20
2022-08-10T07:28:52.664Z,27.40
2022-08-10T07:31:56.316Z,27.80
2022-08-10T07:34:11.265Z,28.60
2022-08-10T07:36:41.591Z,27.60
2022-08-10T07:39:12.701Z,27.70
2022-08-10T07:41:42.700Z,27.60
2022-08-10T07:44:13.660Z,27.30
2022-08-10T07:46:46.869Z,27.70
2022-08-10T07:49:20.206Z,27.10
2022-08-10T07:51:54.474Z,27.40
2022-08-10T07:54:24.983Z,26.90
2022-08-10T07:56:54.647Z,26.40
2022-08-10T07:59:32.001Z,26.30
2022-08-10T08:02:03.327Z,26.80
2022-08-10T08:04:33.218Z,27.40
2022-08-10T08:07:04.421Z,27.20
2022-08-10T08:09:35.821Z,27.20
2022-08-10T08:12:04.673Z,27.30
2022-08-10T08:14:35.909Z,27.00
2022-08-10T08:17:03.981Z,27.00
2022-08-10T08:19:37.582Z,27.00
2022-08-10T08:24:04.650Z,26.50
2022-08-10T08:25:01.461Z,25.90
2022-08-10T08:27:30.465Z,25.40
2022-08-10T08:30:01.312Z,24.90
2022-08-10T08:32:32.344Z,25.00
2022-08-10T08:35:04.052Z,24.60
2022-08-10T08:38:32.171Z,24.70
2022-08-10T08:40:26.506Z,24.80
2022-08-10T08:43:31.639Z,24.90
2022-08-10T08:46:28.357Z,24.80
2022-08-10T08:50:04.906Z,24.50
2022-08-10T08:52:18.373Z,24.50
2022-08-10T08:54:59.343Z,24.60
2022-08-10T08:57:50.352Z,24.70
2022-08-10T09:00:27.854Z,24.70
2022-08-10T09:03:35.511Z,24.60
2022-08-10T09:06:18.081Z,24.50
2022-08-10T09:09:14.832Z,24.70
2022-08-10T09:11:55.262Z,24.80
2022-08-10T09:14:31.566Z,24.60
2022-08-10T09:17:10.709Z,24.60
2022-08-10T09:19:47.575Z,24.60
2022-08-10T09:22:26.631Z,24.60
2022-08-10T09:24:59.567Z,24.80
2022-08-10T09:27:35.374Z,25.00
2022-08-10T09:30:07.584Z,25.00
2022-08-10T09:36:14.999Z,24.90
2022-08-10T09:36:23.353Z,24.90
2022-08-10T09:38:42.682Z,25.00
2022-08-10T09:41:23.773Z,24.90
2022-08-10T09:44:01.467Z,24.90
2022-08-10T09:46:46.531Z,25.00
2022-08-10T09:49:52.878Z,25.10
2022-08-10T09:52:18.559Z,24.90
2022-08-10T09:55:05.299Z,24.90
2022-08-10T09:57:44.552Z,24.90
2022-08-10T10:00:17.442Z,25.10
2022-08-10T10:03:02.850Z,25.00
2022-08-10T10:05:39.105Z,25.00
2022-08-10T10:08:25.818Z,25.20
2022-08-10T10:11:03.644Z,25.10
2022-08-10T10:14:03.524Z,25.40
2022-08-10T10:16:44.829Z,25.40
2022-08-10T10:19:40.013Z,25.30
2022-08-10T10:22:26.358Z,25.20
2022-08-10T10:25:00.747Z,25.10
2022-08-10T10:27:38.241Z,24.90
2022-08-10T10:30:10.608Z,24.90
2022-08-10T10:32:55.859Z,25.10
2022-08-10T10:35:31.433Z,25.30
2022-08-10T10:38:03.555Z,25.50
2022-08-10T10:40:49.185Z,25.40
2022-08-10T10:43:30.614Z,25.30
2022-08-10T10:46:08.170Z,25.20
2022-08-10T10:48:41.339Z,25.20
2022-08-10T10:51:16.175Z,25.20
2022-08-10T10:53:51.662Z,25.10
2022-08-10T10:56:27.548Z,25.40
2022-08-10T10:59:53.525Z,25.50
2022-08-10T11:02:13.009Z,25.40
2022-08-10T11:04:46.845Z,25.10
2022-08-10T11:07:23.721Z,25.20
2022-08-10T11:10:04.935Z,25.20
2022-08-10T11:12:45.698Z,25.20
2022-08-10T11:15:24.939Z,25.30
2022-08-10T11:17:59.020Z,25.40
2022-08-10T11:20:37.042Z,25.40
2022-08-10T11:23:17.870Z,25.40
2022-08-10T11:25:52.831Z,25.50
2022-08-10T11:28:36.795Z,25.60
2022-08-10T11:31:14.496Z,25.60
2022-08-10T11:34:11.677Z,25.50
2022-08-10T11:36:44.204Z,25.50
2022-08-10T11:39:19.177Z,25.40
2022-08-10T11:42:07.823Z,25.40
2022-08-10T11:44:48.475Z,25.70
2022-08-10T11:47:21.201Z,25.70
2022-08-10T11:49:54.693Z,25.70
2022-08-10T11:52:29.518Z,26.00
2022-08-10T11:55:02.049Z,25.80
2022-08-10T11:57:52.907Z,25.70
2022-08-10T12:00:19.896Z,25.60
2022-08-10T12:02:54.153Z,25.70
2022-08-10T12:05:51.638Z,25.80
2022-08-10T12:10:05.656Z,25.80
2022-08-10T12:11:07.241Z,26.10
2022-08-10T12:13:49.780Z,25.90
2022-08-10T12:16:29.234Z,25.90
2022-08-10T12:19:04.628Z,26.00
2022-08-10T12:21:39.794Z,26.00
2022-08-10T12:24:17.230Z,26.00
2022-08-10T12:26:52.882Z,26.20
2022-08-10T12:29:29.060Z,26.10
2022-08-10T12:32:05.796Z,26.10
2022-08-10T12:34:42.770Z,26.10
2022-08-10T12:37:20.884Z,26.10
2022-08-10T12:40:33.814Z,26.30
2022-08-10T12:43:12.933Z,26.30
2022-08-10T12:46:05.842Z,26.20
2022-08-10T12:48:40.419Z,26.20
2022-08-10T12:51:15.742Z,26.20
2022-08-10T12:53:51.085Z,26.30
2022-08-10T12:56:25.318Z,26.20
2022-08-10T12:58:57.453Z,26.30
2022-08-10T13:02:06.764Z,26.20
2022-08-10T13:04:28.118Z,26.20
2022-08-10T13:07:00.235Z,26.30
2022-08-10T13:09:29.163Z,26.20
2022-08-10T13:12:38.365Z,26.00
2022-08-10T13:14:55.307Z,26.20
2022-08-10T13:17:38.613Z,26.20
2022-08-10T13:20:17.123Z,26.20
2022-08-10T13:22:49.487Z,26.10
2022-08-10T13:25:24.318Z,26.30
2022-08-10T13:28:01.389Z,26.40
2022-08-10T13:30:49.797Z,26.40
2022-08-10T13:34:40.549Z,26.60
2022-08-10T13:36:10.011Z,26.40
2022-08-10T13:38:40.980Z,26.40
2022-08-10T13:41:10.512Z,26.40
2022-08-10T13:43:48.945Z,26.60
2022-08-10T13:46:22.471Z,26.70
2022-08-10T13:48:53.322Z,26.70
2022-08-10T13:51:56.606Z,26.70
2022-08-10T13:54:18.577Z,26.70
2022-08-10T13:56:48.720Z,26.70
2022-08-10T13:59:17.202Z,26.70
2022-08-10T14:01:50.505Z,26.70
2022-08-10T14:04:20.218Z,26.70
2022-08-10T14:06:54.569Z,26.70
2022-08-10T14:09:30.926Z,26.50
2022-08-10T14:11:59.969Z,26.40
2022-08-10T14:14:30.165Z,26.40
2022-08-10T14:16:59.713Z,26.40
2022-08-10T14:19:30.638Z,26.60
2022-08-10T14:21:59.256Z,26.70
2022-08-10T14:24:30.288Z,26.80
2022-08-10T14:27:03.362Z,26.60
2022-08-10T14:29:34.190Z,26.70
2022-08-10T14:32:07.750Z,26.60
2022-08-10T14:36:15.160Z,26.60
2022-08-10T14:37:38.259Z,26.60
2022-08-10T14:40:14.422Z,26.60
2022-08-10T14:42:48.089Z,26.50
2022-08-10T14:45:21.522Z,26.40
2022-08-10T14:47:59.195Z,26.50
2022-08-10T14:50:31.650Z,26.40
2022-08-10T14:53:05.519Z,26.40
2022-08-10T14:55:58.859Z,26.50
2022-08-10T14:58:31.831Z,26.60
2022-08-10T15:01:01.434Z,26.60
2022-08-10T15:04:01.800Z,26.50
2022-08-10T15:06:30.682Z,26.50
2022-08-10T15:09:05.114Z,26.50
2022-08-10T15:12:15.712Z,26.50
2022-08-10T15:14:43.725Z,26.50
2022-08-10T15:17:16.690Z,26.40
2022-08-10T15:20:02.712Z,26.50
2022-08-10T15:22:40.244Z,26.50
2022-08-10T15:25:18.599Z,26.50
2022-08-10T15:27:53.867Z,26.40
2022-08-10T15:30:29.473Z,26.40
2022-08-10T15:33:21.493Z,26.40
2022-08-10T15:36:28.380Z,26.30
2022-08-10T15:39:01.584Z,26.20
2022-08-10T15:41:57.541Z,26.20
2022-08-10T15:44:38.201Z,26.30
2022-08-10T15:47:10.313Z,26.30
2022-08-10T15:49:48.867Z,26.30
2022-08-10T15:52:39.467Z,26.20
2022-08-10T15:55:43.289Z,26.20
2022-08-10T15:58:08.647Z,26.30
2022-08-10T16:00:41.902Z,26.40
2022-08-10T16:03:17.081Z,26.30
2022-08-10T16:06:01.549Z,26.30
2022-08-10T16:08:56.851Z,26.20
2022-08-10T16:11:43.318Z,26.10
2022-08-10T16:14:15.641Z,26.10
2022-08-10T16:16:50.360Z,26.20
2022-08-10T16:19:24.093Z,26.30
2022-08-10T16:22:00.123Z,26.30
2022-08-10T16:24:32.228Z,26.20
2022-08-10T16:27:04.823Z,26.20
2022-08-10T16:29:56.510Z,26.20
2022-08-10T16:32:25.362Z,26.10
2022-08-10T16:34:55.578Z,26.10
2022-08-10T16:37:58.048Z,26.00
2022-08-10T16:40:24.894Z,26.00
2022-08-10T16:42:54.475Z,25.90
2022-08-10T16:45:31.544Z,25.90
2022-08-10T16:48:08.984Z,25.90
2022-08-10T16:50:41.743Z,25.90
2022-08-10T16:53:13.741Z,25.90
2022-08-10T16:55:50.362Z,25.90
2022-08-10T16:58:27.345Z,25.80
2022-08-10T17:01:01.224Z,25.80
2022-08-10T17:04:06.435Z,25.80
2022-08-10T17:06:25.093Z,25.60
2022-08-10T17:08:55.449Z,25.50
2022-08-10T17:11:30.009Z,25.50
2022-08-10T17:14:02.956Z,25.40
2022-08-10T17:16:36.505Z,25.40
2022-08-10T17:19:14.168Z,25.30
2022-08-10T17:21:51.376Z,25.30
2022-08-10T17:24:23.858Z,25.20
2022-08-10T17:26:52.841Z,25.10
2022-08-10T17:29:58.762Z,25.10
2022-08-10T17:32:28.855Z,25.10
2022-08-10T17:35:01.782Z,25.00
2022-08-10T17:37:34.780Z,25.00
2022-08-10T17:40:08.255Z,24.90
2022-08-10T17:42:39.428Z,24.80
2022-08-10T17:45:20.817Z,24.80
2022-08-10T17:48:06.642Z,24.80
2022-08-10T17:50:38.534Z,24.70
2022-08-10T17:53:08.917Z,24.60
2022-08-10T17:55:40.175Z,24.50
2022-08-10T17:58:14.487Z,24.40
2022-08-10T18:00:43.973Z,24.30
2022-08-10T18:03:25.294Z,24.20
2022-08-10T18:05:57.722Z,24.00
2022-08-10T18:08:29.157Z,23.90
2022-08-10T18:10:59.372Z,23.80
2022-08-10T18:13:55.263Z,23.80
2022-08-10T18:16:26.122Z,23.70
2022-08-10T18:19:00.596Z,23.50
2022-08-10T18:21:32.291Z,23.50
2022-08-10T18:24:14.186Z,23.30
2022-08-10T18:26:45.838Z,23.20
2022-08-10T18:29:18.887Z,23.10
2022-08-10T18:31:50.050Z,23.00
2022-08-10T18:34:20.901Z,22.90
2022-08-10T18:36:51.343Z,22.80
2022-08-10T18:39:23.929Z,22.80
2022-08-10T18:42:00.683Z,22.70
2022-08-10T18:44:36.992Z,22.60
2022-08-10T18:47:10.993Z,22.60
2022-08-10T18:49:51.962Z,22.60
2022-08-10T18:52:23.597Z,22.50
2022-08-10T18:54:54.875Z,22.40
2022-08-10T18:57:35.833Z,22.40
2022-08-10T19:00:10.540Z,22.30
2022-08-10T19:03:12.149Z,22.10
2022-08-10T19:06:04.587Z,22.10
2022-08-10T19:08:56.540Z,22.00
2022-08-10T19:11:45.643Z,22.10
2022-08-10T19:14:19.744Z,22.00
2022-08-10T19:16:56.795Z,22.00
2022-08-10T19:19:34.659Z,21.90
2022-08-10T19:22:07.075Z,21.90
2022-08-10T19:24:48.157Z,21.90
2022-08-10T19:27:34.696Z,21.90
2022-08-10T19:30:11.666Z,21.80
2022-08-10T19:32:53.496Z,21.80
2022-08-10T19:36:02.992Z,21.80
2022-08-10T19:38:34.157Z,21.70
2022-08-10T19:41:14.987Z,21.70
2022-08-10T19:44:00.147Z,21.70
2022-08-10T19:46:40.290Z,21.50
2022-08-10T19:49:23.510Z,21.50
2022-08-10T19:51:57.648Z,21.50
2022-08-10T19:54:37.119Z,21.50
2022-08-10T19:57:14.183Z,21.40
2022-08-10T20:00:17.047Z,21.30
2022-08-10T20:02:50.424Z,21.40
2022-08-10T20:05:28.202Z,21.30
2022-08-10T20:08:03.167Z,21.20
2022-08-10T20:10:38.268Z,21.10
2022-08-10T20:13:15.594Z,21.10
2022-08-10T20:15:48.370Z,21.10
2022-08-10T20:18:24.505Z,21.00
2022-08-10T20:20:59.337Z,21.10
2022-08-10T20:23:32.755Z,21.10
2022-08-10T20:26:03.096Z,21.20
2022-08-10T20:28:42.393Z,21.20
2022-08-10T20:31:17.235Z,21.10
2022-08-10T20:33:57.446Z,21.10
2022-08-10T20:36:32.343Z,21.10
2022-08-10T20:39:13.697Z,21.10
2022-08-10T20:41:55.941Z,21.00
2022-08-10T20:44:35.489Z,21.10
2022-08-10T20:47:10.455Z,21.00
2022-08-10T20:49:44.845Z,21.00
2022-08-10T20:52:15.321Z,21.00
2022-08-10T20:54:50.883Z,21.00
2022-08-10T20:57:54.891Z,21.00
2022-08-10T21:00:25.126Z,21.00
2022-08-10T21:03:06.962Z,21.00
2022-08-10T21:05:49.469Z,20.90
2022-08-10T21:08:31.387Z,21.00
2022-08-10T21:11:08.103Z,20.80
2022-08-10T21:13:52.603Z,20.70
2022-08-10T21:16:38.063Z,20.60
2022-08-10T21:19:52.378Z,20.50
2022-08-10T21:22:40.138Z,20.40
2022-08-10T21:25:15.609Z,20.30
2022-08-10T21:28:29.192Z,20.20
2022-08-10T21:31:29.409Z,20.20
2022-08-10T21:34:10.213Z,20.20
2022-08-10T21:36:47.527Z,20.20
2022-08-10T21:39:42.535Z,20.20
2022-08-10T21:42:40.438Z,20.20
2022-08-10T21:45:58.064Z,20.20
2022-08-10T21:48:57.272Z,20.20
2022-08-10T21:52:01.359Z,20.20
2022-08-10T21:55:08.551Z,20.20
2022-08-10T21:58:05.086Z,20.20
2022-08-10T22:00:54.197Z,20.20
2022-08-10T22:03:40.546Z,20.10
2022-08-10T22:06:30.041Z,20.00
2022-08-10T22:09:21.157Z,20.00
2022-08-10T22:12:31.052Z,19.90
2022-08-10T22:15:24.278Z,19.90
2022-08-10T22:18:32.775Z,19.90
2022-08-10T22:21:27.073Z,19.80
2022-08-10T22:24:25.175Z,19.80
2022-08-10T22:27:47.313Z,19.80
2022-08-10T22:30:34.581Z,19.70
2022-08-10T22:33:47.080Z,19.80
2022-08-10T22:36:50.834Z,19.70
2022-08-10T22:40:11.701Z,19.60
2022-08-10T22:43:10.419Z,19.60
2022-08-10T22:46:02.824Z,19.70
2022-08-10T22:48:48.363Z,19.60
2022-08-10T22:51:24.119Z,19.70
2022-08-10T22:54:31.512Z,19.70
2022-08-10T22:57:20.589Z,19.60
2022-08-10T22:59:50.263Z,19.60
2022-08-10T23:02:30.782Z,19.50
2022-08-10T23:05:04.931Z,19.50
2022-08-10T23:07:36.671Z,19.40
2022-08-10T23:10:08.437Z,19.40
2022-08-10T23:12:42.419Z,19.40
2022-08-10T23:15:38.376Z,19.30
2022-08-10T23:18:26.574Z,19.30
2022-08-10T23:20:57.407Z,19.20
2022-08-10T23:23:28.721Z,19.20
2022-08-10T23:25:58.512Z,19.10
2022-08-10T23:28:39.119Z,19.00
2022-08-10T23:32:00.597Z,18.90
2022-08-10T23:34:13.266Z,18.80
2022-08-10T23:36:43.410Z,18.80
2022-08-10T23:39:27.114Z,18.90
2022-08-10T23:42:03.107Z,18.80
2022-08-10T23:44:41.823Z,18.90
2022-08-10T23:47:11.054Z,18.90
2022-08-10T23:49:41.029Z,19.00
2022-08-10T23:52:14.794Z,19.00
2022-08-10T23:54:48.945Z,19.10
2022-08-10T23:57:19.758Z,19.10
2022-08-10T23:59:56.462Z,19.00
